createdAt,value
2019-05-11T11:29:58.910Z,99.90
2019-05-11T11:32:28.530Z,99.90
2019-05-11T11:34:58.144Z,99.90
2019-05-11T11:37:28.123Z,99.90
2019-05-11T11:39:58.207Z,99.90
2019-05-11T11:42:28.451Z,99.90
2019-05-11T11:44:58.751Z,99.90
2019-05-11T11:47:28.564Z,99.90
2019-05-11T11:49:58.471Z,99.90
2019-05-11T11:52:29.229Z,99.90
2019-05-11T11:54:58.901Z,99.90
2019-05-11T11:57:28.596Z,99.90
2019-05-11T11:59:59.471Z,99.90
2019-05-11T12:02:29.093Z,99.90
2019-05-11T12:04:58.742Z,99.90
2019-05-11T12:07:28.646Z,99.90
2019-05-11T12:09:58.909Z,99.90
2019-05-11T12:12:28.593Z,99.90
2019-05-11T12:14:58.552Z,99.90
2019-05-11T12:17:28.680Z,99.90
2019-05-11T12:19:58.724Z,99.90
2019-05-11T12:22:28.571Z,99.90
2019-05-11T12:24:58.902Z,99.90
2019-05-11T12:27:28.836Z,99.90
2019-05-11T12:29:58.632Z,99.90
2019-05-11T12:32:42.706Z,99.90
2019-05-11T12:35:12.669Z,99.90
2019-05-11T12:37:42.371Z,99.90
2019-05-11T12:40:14.912Z,99.90
2019-05-11T12:42:44.536Z,99.90
2019-05-11T12:45:14.504Z,99.90
2019-05-11T12:47:44.124Z,99.90
2019-05-11T12:50:14.112Z,99.90
2019-05-11T12:52:43.792Z,99.90
2019-05-11T12:55:13.745Z,99.90
2019-05-11T12:57:44.441Z,99.90
2019-05-11T13:00:14.996Z,99.80
2019-05-11T13:02:48.197Z,99.80
2019-05-11T13:05:18.128Z,99.90
2019-05-11T13:07:48.460Z,99.90
2019-05-11T13:10:18.957Z,99.90
2019-05-11T13:12:49.371Z,99.90
2019-05-11T13:15:20.936Z,99.90
2019-05-11T13:17:50.554Z,99.90
2019-05-11T13:20:20.175Z,99.90
2019-05-11T13:22:49.885Z,99.90
2019-05-11T13:25:19.508Z,99.90
2019-05-11T13:27:49.402Z,99.90
2019-05-11T13:30:19.393Z,99.90
2019-05-11T13:32:49.296Z,99.90
2019-05-11T13:35:19.120Z,99.30
2019-05-11T13:37:48.860Z,99.60
2019-05-11T13:40:18.789Z,99.90
2019-05-11T13:42:49.098Z,99.50
2019-05-11T13:45:19.277Z,99.70
2019-05-11T13:47:55.355Z,99.90
2019-05-11T13:50:20.292Z,99.60
2019-05-11T13:52:49.898Z,99.40
2019-05-11T13:55:19.527Z,99.90
2019-05-11T13:57:49.129Z,98.90
2019-05-11T14:00:19.446Z,98.90
2019-05-11T14:02:49.102Z,99.10
2019-05-11T14:05:18.767Z,99.80
2019-05-11T14:07:48.549Z,98.90
2019-05-11T14:10:18.489Z,98.50
2019-05-11T14:12:48.304Z,98.30
2019-05-11T14:15:18.840Z,97.90
2019-05-11T14:18:04.421Z,98.30
2019-05-11T14:20:21.445Z,97.80
2019-05-11T14:22:51.074Z,98.00
2019-05-11T14:25:20.758Z,98.20
